48WI weather

Circle A Ranch Airport
Hazelhurst, Wisconsin, United States

Public forecast

Using degrees Fahrenheit for public forecast. Weather courtesy of forecast.io.

Closest aviation weather report (METAR) to Circle A Ranch Airport

Closest report is Lakeland-Noble F. Lee Memorial field, 8.1 nm (14.9 km) N. Retrieved 2019/10/24 00:55 UTC (1 hour ago):

KARV 240055Z AUTO 25003KT 10SM SCT043 03/02 A2993 RMK AO2 T00250015

Closest aviation forecast (TAF) to Circle A Ranch Airport

Forecast is more than 6 hours old.

Closest forecast is Rhinelander Oneida County Airport, 14.7 nm (27.3 km) SE. Retrieved 2019/10/23 18:39 UTC (7 hours ago):

TAF KRHI 231737Z 2318/2418 27008G15KT P6SM OVC025 FM232100 28006KT P6SM OVC024 FM240600 29006KT P6SM BKN030 FM241100 29006KT P6SM OVC014